Time;durP1;ratioP1;P1;durP2;ratioP2;P2;SDS_P1;SDS_P2;PMS_P1;PMS_P2;Temp;Humidity;BMP_temperature;BMP_pressure;BME280_temperature;BME280_humidity;BME280_pressure;Samples;Min_cycle;Max_cycle;Signal;HPM_P1;HPM_P2
2024/01/14 00:20:23;;;;;;;10.9;1.3;;;;;;;;;;;;;-82
2024/01/14 00:50:23;;;;;;;8.4;1;;;;;;;;;;;;;-82
2024/01/14 01:20:25;;;;;;;12.3;1.8;;;;;;;;;;;;;-83
2024/01/14 01:50:23;;;;;;;9.3;1.3;;;;;;;;;;;;;-82
2024/01/14 02:20:24;;;;;;;11.3;1.3;;;;;;;;;;;;;-82
2024/01/14 02:50:33;;;;;;;10.4;1.3;;;;;;;;;;;;;-81
2024/01/14 03:20:25;;;;;;;11;1.4;;;;;;;;;;;;;-83
2024/01/14 03:50:23;;;;;;;12.9;1.5;;;;;;;;;;;;;-82
2024/01/14 04:20:22;;;;;;;9.1;0.8;;;;;;;;;;;;;-82
2024/01/14 04:50:28;;;;;;;10.3;1;;;;;;;;;;;;;-82
2024/01/14 05:20:21;;;;;;;11.4;1.2;;;;;;;;;;;;;-82
2024/01/14 05:50:28;;;;;;;9.8;1.3;;;;;;;;;;;;;-82
2024/01/14 06:20:21;;;;;;;14.5;1.2;;;;;;;;;;;;;-83
2024/01/14 06:50:21;;;;;;;13.5;1.4;;;;;;;;;;;;;-81
2024/01/14 07:20:20;;;;;;;10.7;1.6;;;;;;;;;;;;;-81
2024/01/14 07:50:20;;;;;;;12.4;1.1;;;;;;;;;;;;;-81
2024/01/14 08:20:19;;;;;;;9.2;2.7;;;;;;;;;;;;;-82
2024/01/14 08:50:19;;;;;;;13.6;4;;;;;;;;;;;;;-81
2024/01/14 09:20:19;;;;;;;13.3;2.7;;;;;;;;;;;;;-82
2024/01/14 09:50:18;;;;;;;13.6;3.9;;;;;;;;;;;;;-79
2024/01/14 10:20:26;;;;;;;10.4;2.5;;;;;;;;;;;;;-81
2024/01/14 10:50:20;;;;;;;5.2;1.2;;;;;;;;;;;;;-81
2024/01/14 11:20:24;;;;;;;2.6;0.8;;;;;;;;;;;;;-82
2024/01/14 11:50:18;;;;;;;5.3;1.9;;;;;;;;;;;;;-78
2024/01/14 12:20:24;;;;;;;8.4;3;;;;;;;;;;;;;-80
2024/01/14 12:50:23;;;;;;;7.9;2.6;;;;;;;;;;;;;-80
2024/01/14 13:20:20;;;;;;;3.3;0.8;;;;;;;;;;;;;-80
2024/01/14 13:50:21;;;;;;;4.3;0.5;;;;;;;;;;;;;-81
2024/01/14 14:20:19;;;;;;;6.6;1.4;;;;;;;;;;;;;-79
2024/01/14 14:50:26;;;;;;;7.4;1.5;;;;;;;;;;;;;-79
2024/01/14 15:20:17;;;;;;;10.7;2.6;;;;;;;;;;;;;-79
2024/01/14 15:50:17;;;;;;;7.6;1.2;;;;;;;;;;;;;-80
2024/01/14 16:20:17;;;;;;;7.8;0.9;;;;;;;;;;;;;-81
2024/01/14 16:50:15;;;;;;;11.3;2;;;;;;;;;;;;;-80
2024/01/14 17:20:25;;;;;;;8.4;1.2;;;;;;;;;;;;;-79
2024/01/14 17:50:17;;;;;;;6.9;1.1;;;;;;;;;;;;;-79
2024/01/14 18:20:15;;;;;;;2.3;0.6;;;;;;;;;;;;;-79
2024/01/14 18:50:15;;;;;;;9.5;0.8;;;;;;;;;;;;;-81
2024/01/14 19:20:15;;;;;;;5.4;0.9;;;;;;;;;;;;;-80
2024/01/14 19:50:15;;;;;;;5.3;0.7;;;;;;;;;;;;;-81
2024/01/14 20:20:29;;;;;;;3.9;0.7;;;;;;;;;;;;;-86
2024/01/14 20:50:23;;;;;;;12.3;1.2;;;;;;;;;;;;;-87
2024/01/14 21:20:15;;;;;;;9.1;0.8;;;;;;;;;;;;;-86
2024/01/14 21:50:14;;;;;;;12.1;1.4;;;;;;;;;;;;;-86
2024/01/14 22:20:16;;;;;;;15.9;1.3;;;;;;;;;;;;;-84
2024/01/14 22:50:13;;;;;;;11.8;1.1;;;;;;;;;;;;;-86
2024/01/14 23:20:12;;;;;;;14.6;1.5;;;;;;;;;;;;;-85
2024/01/14 23:50:11;;;;;;;13.6;1.2;;;;;;;;;;;;;-85
